createdAt,value
2023-02-09T00:01:31.410Z,43.40
2023-02-09T00:03:59.355Z,44.00
2023-02-09T00:06:29.677Z,43.80
2023-02-09T00:08:57.465Z,44.10
2023-02-09T00:11:48.223Z,43.90
2023-02-09T00:14:19.625Z,44.10
2023-02-09T00:16:48.392Z,43.80
2023-02-09T00:19:15.593Z,44.30
2023-02-09T00:21:42.865Z,44.20
2023-02-09T00:24:10.945Z,43.50
2023-02-09T00:26:38.773Z,43.90
2023-02-09T00:29:06.207Z,44.10
2023-02-09T00:31:33.245Z,43.60
2023-02-09T00:34:00.958Z,43.70
2023-02-09T00:36:28.374Z,43.80
2023-02-09T00:38:55.407Z,43.30
2023-02-09T00:41:42.632Z,44.40
2023-02-09T00:44:11.331Z,43.50
2023-02-09T00:46:38.786Z,43.60
2023-02-09T00:49:05.963Z,44.10
2023-02-09T00:51:32.825Z,44.40
2023-02-09T00:54:01.607Z,44.20
2023-02-09T00:56:28.335Z,43.40
2023-02-09T00:58:55.111Z,44.00
2023-02-09T01:01:21.833Z,44.40
2023-02-09T01:03:48.571Z,43.70
2023-02-09T01:06:15.515Z,44.40
2023-02-09T01:08:42.667Z,44.70
2023-02-09T01:11:13.491Z,44.20
2023-02-09T01:13:42.050Z,44.30
2023-02-09T01:16:11.368Z,44.30
2023-02-09T01:18:41.085Z,44.10
2023-02-09T01:21:16.778Z,44.50
2023-02-09T01:23:44.719Z,43.80
2023-02-09T01:26:13.024Z,43.70
2023-02-09T01:28:40.109Z,43.70
2023-02-09T01:31:17.799Z,44.30
2023-02-09T01:33:44.657Z,43.80
2023-02-09T01:36:11.429Z,44.30
2023-02-09T01:38:39.270Z,44.70
2023-02-09T01:41:06.032Z,44.40
2023-02-09T01:43:59.057Z,44.70
2023-02-09T01:46:29.525Z,43.80
2023-02-09T01:49:10.990Z,44.90
2023-02-09T01:51:59.477Z,44.70
2023-02-09T01:54:32.596Z,43.80
2023-02-09T01:57:07.918Z,44.70
2023-02-09T01:59:38.357Z,43.90
2023-02-09T02:02:07.455Z,44.00
2023-02-09T02:04:35.456Z,44.80
2023-02-09T02:07:27.342Z,44.30
2023-02-09T02:09:54.425Z,44.70
2023-02-09T02:12:22.204Z,44.90
2023-02-09T02:14:49.957Z,44.50
2023-02-09T02:17:42.123Z,44.40
2023-02-09T02:20:40.113Z,43.80
2023-02-09T02:23:21.275Z,43.80
2023-02-09T02:26:01.656Z,43.80
2023-02-09T02:28:49.759Z,44.20
2023-02-09T02:31:16.601Z,43.90
2023-02-09T02:34:33.204Z,44.00
2023-02-09T02:37:31.205Z,44.00
2023-02-09T02:40:10.657Z,44.00
2023-02-09T02:42:50.053Z,45.00
2023-02-09T02:45:33.564Z,44.00
2023-02-09T02:48:13.117Z,44.10
2023-02-09T02:50:48.036Z,44.20
2023-02-09T02:53:17.037Z,45.00
2023-02-09T02:55:45.703Z,44.10
2023-02-09T02:58:14.564Z,44.70
2023-02-09T03:00:46.727Z,45.20
2023-02-09T03:03:21.749Z,44.10
2023-02-09T03:05:49.352Z,44.80
2023-02-09T03:08:16.536Z,45.00
2023-02-09T03:10:43.499Z,44.30
2023-02-09T03:13:22.186Z,44.30
2023-02-09T03:15:52.894Z,43.30
2023-02-09T03:18:30.993Z,44.80
2023-02-09T03:21:04.721Z,44.90
2023-02-09T03:23:41.256Z,44.10
2023-02-09T03:26:18.059Z,44.80
2023-02-09T03:28:47.764Z,44.50
2023-02-09T03:31:15.356Z,44.80
2023-02-09T03:33:42.585Z,45.00
2023-02-09T03:36:15.573Z,45.00
2023-02-09T03:38:42.306Z,44.80
2023-02-09T03:41:09.148Z,45.00
2023-02-09T03:43:54.431Z,44.10
2023-02-09T03:46:21.523Z,45.00
2023-02-09T03:48:49.914Z,44.60
2023-02-09T03:51:17.043Z,44.20
2023-02-09T03:53:43.847Z,45.00
2023-02-09T03:56:10.661Z,44.90
2023-02-09T03:58:37.572Z,44.20
2023-02-09T04:01:07.671Z,45.00
2023-02-09T04:03:35.639Z,44.20
2023-02-09T04:06:02.892Z,45.30
2023-02-09T04:08:30.342Z,44.20
2023-02-09T04:10:57.518Z,45.10
2023-02-09T04:13:25.263Z,45.20
2023-02-09T04:15:52.323Z,44.40
2023-02-09T04:18:19.495Z,44.50
2023-02-09T04:20:46.820Z,44.90
2023-02-09T04:23:13.889Z,44.90
2023-02-09T04:25:40.713Z,44.80
2023-02-09T04:28:07.456Z,44.70
2023-02-09T04:30:34.359Z,45.20
2023-02-09T04:33:01.353Z,44.30
2023-02-09T04:35:28.074Z,44.30
2023-02-09T04:37:54.903Z,45.40
2023-02-09T04:40:21.664Z,45.20
2023-02-09T04:42:48.502Z,45.10
2023-02-09T04:45:15.269Z,44.90
2023-02-09T04:47:42.107Z,44.30
2023-02-09T04:50:09.167Z,45.20
2023-02-09T04:52:35.980Z,44.30
2023-02-09T04:55:03.094Z,44.90
2023-02-09T04:57:49.435Z,44.50
2023-02-09T05:00:16.442Z,44.30
2023-02-09T05:02:43.198Z,44.50
2023-02-09T05:05:09.963Z,44.40
2023-02-09T05:07:36.632Z,44.40
2023-02-09T05:10:04.094Z,44.50
2023-02-09T05:12:30.928Z,44.30
2023-02-09T05:14:57.633Z,45.40
2023-02-09T05:17:24.350Z,44.70
2023-02-09T05:19:51.109Z,44.90
2023-02-09T05:22:18.000Z,44.90
2023-02-09T05:24:44.843Z,45.10
2023-02-09T05:27:11.632Z,45.00
2023-02-09T05:29:38.349Z,45.10
2023-02-09T05:32:05.203Z,44.70
2023-02-09T05:34:31.938Z,44.30
2023-02-09T05:36:58.686Z,45.30
2023-02-09T05:39:25.533Z,44.70
2023-02-09T05:42:10.914Z,44.70
2023-02-09T05:44:37.773Z,44.50
2023-02-09T05:47:04.529Z,45.20
2023-02-09T05:49:31.331Z,44.20
2023-02-09T05:51:58.119Z,44.40
2023-02-09T05:54:25.030Z,44.30
2023-02-09T05:56:51.920Z,44.70
2023-02-09T05:59:18.742Z,45.90
2023-02-09T06:01:45.519Z,44.50
2023-02-09T06:04:12.339Z,45.20
2023-02-09T06:06:39.159Z,45.10
2023-02-09T06:09:06.017Z,45.00
2023-02-09T06:11:33.065Z,45.10
2023-02-09T06:13:59.903Z,45.10
2023-02-09T06:16:26.690Z,45.00
2023-02-09T06:18:53.768Z,45.10
2023-02-09T06:21:20.550Z,45.10
2023-02-09T06:23:47.687Z,45.20
2023-02-09T06:26:16.883Z,45.10
2023-02-09T06:28:44.292Z,44.70
2023-02-09T06:31:11.925Z,44.90
2023-02-09T06:33:38.941Z,44.80
2023-02-09T06:36:07.095Z,45.00
2023-02-09T06:38:36.001Z,44.20
2023-02-09T06:41:03.633Z,45.20
2023-02-09T06:43:30.438Z,45.10
2023-02-09T06:45:57.441Z,45.10
2023-02-09T06:48:24.501Z,44.60
2023-02-09T06:50:51.280Z,45.20
2023-02-09T06:53:18.612Z,45.20
2023-02-09T06:55:45.378Z,45.30
2023-02-09T06:58:12.131Z,44.50
2023-02-09T07:00:38.879Z,45.20
2023-02-09T07:03:05.786Z,44.20
2023-02-09T07:05:32.585Z,45.20
2023-02-09T07:07:59.322Z,44.90
2023-02-09T07:10:26.453Z,44.60
2023-02-09T07:12:53.191Z,44.80
2023-02-09T07:15:19.954Z,44.80
2023-02-09T07:17:46.806Z,44.40
2023-02-09T07:20:13.692Z,44.10
2023-02-09T07:22:41.004Z,44.20
2023-02-09T07:25:08.261Z,45.20
2023-02-09T07:27:35.050Z,44.50
2023-02-09T07:30:01.946Z,44.60
2023-02-09T07:32:28.870Z,44.40
2023-02-09T07:34:55.591Z,44.30
2023-02-09T07:37:22.496Z,45.00
2023-02-09T07:39:49.351Z,45.40
2023-02-09T07:42:16.343Z,44.40
2023-02-09T07:44:53.397Z,45.10
2023-02-09T07:47:20.130Z,45.40
2023-02-09T07:49:46.896Z,45.10
2023-02-09T07:52:13.709Z,45.80
2023-02-09T07:54:40.486Z,45.50
2023-02-09T07:57:07.201Z,44.70
2023-02-09T07:59:33.943Z,45.30
2023-02-09T08:02:00.772Z,46.10
2023-02-09T08:04:27.524Z,46.30
2023-02-09T08:06:55.235Z,47.10
2023-02-09T08:09:22.029Z,46.00
2023-02-09T08:11:54.410Z,46.90
2023-02-09T08:14:29.837Z,46.30
2023-02-09T08:17:20.029Z,46.80
2023-02-09T08:20:09.049Z,46.90
2023-02-09T08:22:41.257Z,46.00
2023-02-09T08:25:09.234Z,46.60
2023-02-09T08:27:39.291Z,47.10
2023-02-09T08:30:06.673Z,46.30
2023-02-09T08:32:33.506Z,46.30
2023-02-09T08:35:00.304Z,46.20
2023-02-09T08:37:27.201Z,47.20
2023-02-09T08:39:54.163Z,46.00
2023-02-09T08:42:20.916Z,46.60
2023-02-09T08:44:47.789Z,46.80
2023-02-09T08:47:14.601Z,46.40
2023-02-09T08:49:41.598Z,47.00
2023-02-09T08:52:08.523Z,46.10
2023-02-09T08:54:35.685Z,46.80
2023-02-09T08:57:02.610Z,45.90
2023-02-09T08:59:29.381Z,46.90
2023-02-09T09:01:56.213Z,45.90
2023-02-09T09:04:23.089Z,45.80
2023-02-09T09:06:50.021Z,46.30
2023-02-09T09:09:16.917Z,45.90
2023-02-09T09:11:43.621Z,45.60
2023-02-09T09:14:10.389Z,46.20
2023-02-09T09:16:37.212Z,46.50
2023-02-09T09:19:05.385Z,46.20
2023-02-09T09:21:33.229Z,46.30
2023-02-09T09:23:59.990Z,46.30
2023-02-09T09:26:26.742Z,46.60
2023-02-09T09:28:53.520Z,45.60
2023-02-09T09:31:20.478Z,46.40
2023-02-09T09:33:47.740Z,45.60
2023-02-09T09:36:14.859Z,46.20
2023-02-09T09:38:42.392Z,46.40
2023-02-09T09:41:36.366Z,46.40
2023-02-09T09:44:09.969Z,45.40
2023-02-09T09:46:41.024Z,45.40
2023-02-09T09:49:31.391Z,45.90
2023-02-09T09:52:21.733Z,45.60
2023-02-09T09:54:48.670Z,45.40
2023-02-09T09:57:27.350Z,45.60
2023-02-09T09:59:56.020Z,45.30
2023-02-09T10:02:29.862Z,45.90
2023-02-09T10:05:11.797Z,45.20
2023-02-09T10:07:40.195Z,46.20
2023-02-09T10:10:22.644Z,45.90
2023-02-09T10:12:50.890Z,46.20
2023-02-09T10:15:30.117Z,45.40
2023-02-09T10:17:57.794Z,46.10
2023-02-09T10:20:48.246Z,45.70
2023-02-09T10:23:28.258Z,45.10
2023-02-09T10:26:01.553Z,45.10
2023-02-09T10:28:46.433Z,45.40
2023-02-09T10:31:54.965Z,45.00
2023-02-09T10:34:33.260Z,45.00
2023-02-09T10:37:20.301Z,45.00
2023-02-09T10:40:00.895Z,45.00
2023-02-09T10:42:32.835Z,45.80
2023-02-09T10:45:39.510Z,45.70
2023-02-09T10:48:12.354Z,45.00
2023-02-09T10:50:58.818Z,46.10
2023-02-09T10:54:00.635Z,45.00
2023-02-09T10:56:35.498Z,45.00
2023-02-09T10:59:23.757Z,45.00
2023-02-09T11:02:02.747Z,45.90
2023-02-09T11:04:40.649Z,45.50
2023-02-09T11:07:14.885Z,46.10
2023-02-09T11:09:47.672Z,45.70
2023-02-09T11:12:14.927Z,45.30
2023-02-09T11:14:43.019Z,45.10
2023-02-09T11:17:29.614Z,45.80
2023-02-09T11:20:08.381Z,45.40
2023-02-09T11:22:53.804Z,45.00
2023-02-09T11:25:29.720Z,45.00
2023-02-09T11:28:27.626Z,45.00
2023-02-09T11:31:22.264Z,45.00
2023-02-09T11:34:00.098Z,45.00
2023-02-09T11:36:45.575Z,45.80
2023-02-09T11:39:21.958Z,44.90
2023-02-09T11:42:35.285Z,46.20
2023-02-09T11:45:37.272Z,44.90
2023-02-09T11:48:28.210Z,44.90
2023-02-09T11:51:16.524Z,44.90
2023-02-09T11:54:10.704Z,44.90
2023-02-09T11:57:01.955Z,46.00
2023-02-09T11:59:43.300Z,45.80
2023-02-09T12:02:23.875Z,46.00
2023-02-09T12:04:56.058Z,45.50
2023-02-09T12:07:46.072Z,46.70
2023-02-09T12:10:27.657Z,45.60
2023-02-09T12:13:01.444Z,46.60
2023-02-09T12:15:38.060Z,45.90
2023-02-09T12:18:13.123Z,45.80
2023-02-09T12:21:00.934Z,46.50
2023-02-09T12:23:35.119Z,46.60
2023-02-09T12:26:21.874Z,46.00
2023-02-09T12:29:16.732Z,46.40
2023-02-09T12:32:06.041Z,47.00
2023-02-09T12:34:50.609Z,45.60
2023-02-09T12:37:27.247Z,46.10
2023-02-09T12:40:12.258Z,46.10
2023-02-09T12:42:46.174Z,45.60
2023-02-09T12:45:43.555Z,46.60
2023-02-09T12:48:16.286Z,46.40
2023-02-09T12:50:43.201Z,45.50
2023-02-09T12:53:21.876Z,46.00
2023-02-09T12:56:04.007Z,46.50
2023-02-09T12:58:43.527Z,45.50
2023-02-09T13:01:11.952Z,45.50
2023-02-09T13:03:51.254Z,46.40
2023-02-09T13:06:40.657Z,46.10
2023-02-09T13:09:13.374Z,45.50
2023-02-09T13:11:51.470Z,45.90
2023-02-09T13:14:22.203Z,46.40
2023-02-09T13:17:16.729Z,46.00
2023-02-09T13:19:52.095Z,45.50
2023-02-09T13:22:28.220Z,45.50
2023-02-09T13:25:17.473Z,45.80
2023-02-09T13:27:49.574Z,45.50
2023-02-09T13:30:31.349Z,46.10
2023-02-09T13:33:25.780Z,45.50
2023-02-09T13:35:55.677Z,45.60
2023-02-09T13:38:24.030Z,45.60
2023-02-09T13:40:51.342Z,45.60
2023-02-09T13:43:29.978Z,45.90
2023-02-09T13:45:58.046Z,46.30
2023-02-09T13:48:35.191Z,46.60
2023-02-09T13:51:16.132Z,46.50
2023-02-09T13:53:59.398Z,45.80
2023-02-09T13:56:27.046Z,46.70
2023-02-09T13:58:54.043Z,45.80
2023-02-09T14:01:33.580Z,46.70
2023-02-09T14:04:11.879Z,45.80
2023-02-09T14:06:47.454Z,46.50
2023-02-09T14:09:20.855Z,45.90
2023-02-09T14:11:53.113Z,46.00
2023-02-09T14:14:26.844Z,46.20
2023-02-09T14:17:25.232Z,45.90
2023-02-09T14:19:54.383Z,46.80
2023-02-09T14:22:36.574Z,47.60
2023-02-09T14:25:22.342Z,46.00
2023-02-09T14:27:49.247Z,46.00
2023-02-09T14:30:20.508Z,46.40
2023-02-09T14:32:55.408Z,46.00
2023-02-09T14:35:29.365Z,46.00
2023-02-09T14:37:58.879Z,46.10
2023-02-09T14:40:28.683Z,46.60
2023-02-09T14:43:17.021Z,46.80
2023-02-09T14:45:47.761Z,46.10
2023-02-09T14:48:22.801Z,46.50
2023-02-09T14:50:53.123Z,46.20
2023-02-09T14:53:21.629Z,46.20
2023-02-09T14:55:48.688Z,46.80
2023-02-09T14:58:21.347Z,46.60
2023-02-09T15:00:48.589Z,47.20
2023-02-09T15:03:15.530Z,47.30
2023-02-09T15:05:43.242Z,46.90
2023-02-09T15:08:19.882Z,47.20
2023-02-09T15:10:53.362Z,46.80
2023-02-09T15:13:21.079Z,47.10
2023-02-09T15:15:48.864Z,47.00
2023-02-09T15:18:20.905Z,46.30
2023-02-09T15:20:47.958Z,46.30
2023-02-09T15:23:14.957Z,47.40
2023-02-09T15:25:42.199Z,46.40
2023-02-09T15:28:18.160Z,46.60
2023-02-09T15:30:45.397Z,45.80
2023-02-09T15:33:13.019Z,46.60
2023-02-09T15:35:40.926Z,47.30
2023-02-09T15:38:10.981Z,46.60
2023-02-09T15:41:02.324Z,47.30
2023-02-09T15:43:48.204Z,47.40
2023-02-09T15:46:33.961Z,46.00
2023-02-09T15:49:01.364Z,47.40
2023-02-09T15:51:33.760Z,47.80
2023-02-09T15:54:05.496Z,47.30
2023-02-09T15:56:32.237Z,47.50
2023-02-09T15:59:03.428Z,47.20
2023-02-09T16:01:34.338Z,47.20
2023-02-09T16:04:13.560Z,46.60
2023-02-09T16:06:44.890Z,47.60
2023-02-09T16:09:26.523Z,46.80
2023-02-09T16:11:53.405Z,46.70
2023-02-09T16:14:22.054Z,46.80
2023-02-09T16:16:49.443Z,46.70
2023-02-09T16:19:17.022Z,47.20
2023-02-09T16:21:46.905Z,47.60
2023-02-09T16:24:33.360Z,47.20
2023-02-09T16:27:13.195Z,47.10
2023-02-09T16:29:39.999Z,47.80
2023-02-09T16:32:15.429Z,47.40
2023-02-09T16:34:42.767Z,47.50
2023-02-09T16:37:13.844Z,47.50
2023-02-09T16:39:40.855Z,47.80
2023-02-09T16:42:14.726Z,47.40
2023-02-09T16:44:42.247Z,48.00
2023-02-09T16:47:17.920Z,47.10
2023-02-09T16:50:00.424Z,47.70
2023-02-09T16:52:27.951Z,47.90
2023-02-09T16:55:05.431Z,47.30
2023-02-09T16:57:32.336Z,47.80
2023-02-09T16:59:59.263Z,48.20
2023-02-09T17:02:36.677Z,47.50
2023-02-09T17:05:30.648Z,47.10
2023-02-09T17:08:09.272Z,47.10
2023-02-09T17:10:36.025Z,47.20
2023-02-09T17:13:04.555Z,48.10
2023-02-09T17:15:39.511Z,48.30
2023-02-09T17:18:09.065Z,47.50
2023-02-09T17:20:40.981Z,48.30
2023-02-09T17:23:13.961Z,48.10
2023-02-09T17:25:40.816Z,48.20
2023-02-09T17:28:07.615Z,47.70
2023-02-09T17:30:35.056Z,48.20
2023-02-09T17:33:05.745Z,47.80
2023-02-09T17:36:03.725Z,47.40
2023-02-09T17:38:26.560Z,48.40
2023-02-09T17:40:57.138Z,47.90
2023-02-09T17:43:24.718Z,48.40
2023-02-09T17:45:51.970Z,48.20
2023-02-09T17:48:23.057Z,48.50
2023-02-09T17:50:52.727Z,47.60
2023-02-09T17:53:22.617Z,48.60
2023-02-09T17:55:50.053Z,47.80
2023-02-09T17:58:17.880Z,47.90
2023-02-09T18:00:45.740Z,48.50
2023-02-09T18:03:19.283Z,48.00
2023-02-09T18:05:52.176Z,48.10
2023-02-09T18:08:20.316Z,47.80
2023-02-09T18:10:47.796Z,47.90
2023-02-09T18:13:19.653Z,48.00
2023-02-09T18:15:48.760Z,47.80
2023-02-09T18:18:16.042Z,48.40
2023-02-09T18:20:43.001Z,48.40
2023-02-09T18:23:14.845Z,48.40
2023-02-09T18:25:41.742Z,48.60
2023-02-09T18:28:09.125Z,48.30
2023-02-09T18:30:38.835Z,48.50
2023-02-09T18:33:07.065Z,48.00
2023-02-09T18:35:40.434Z,48.20
2023-02-09T18:38:10.078Z,48.70
2023-02-09T18:40:38.810Z,48.60
2023-02-09T18:43:07.685Z,48.40
2023-02-09T18:45:35.071Z,48.10
2023-02-09T18:48:01.976Z,48.80
2023-02-09T18:50:31.002Z,48.60
2023-02-09T18:53:01.094Z,48.10
2023-02-09T18:55:30.971Z,48.00
2023-02-09T18:57:59.948Z,49.00
2023-02-09T19:00:26.979Z,48.50
2023-02-09T19:02:57.476Z,48.20
2023-02-09T19:05:26.975Z,48.40
2023-02-09T19:07:55.292Z,48.30
2023-02-09T19:10:23.029Z,48.80
2023-02-09T19:12:50.327Z,48.20
2023-02-09T19:15:18.609Z,49.10
2023-02-09T19:17:45.997Z,49.00
2023-02-09T19:20:17.388Z,48.70
2023-02-09T19:22:44.549Z,48.90
2023-02-09T19:25:11.305Z,48.90
2023-02-09T19:27:38.165Z,49.20
2023-02-09T19:30:05.451Z,48.90
2023-02-09T19:32:32.337Z,48.40
2023-02-09T19:34:59.142Z,49.30
2023-02-09T19:37:26.029Z,48.70
2023-02-09T19:39:53.039Z,48.60
2023-02-09T19:42:21.551Z,49.30
2023-02-09T19:44:49.121Z,48.60
2023-02-09T19:47:16.252Z,49.20
2023-02-09T19:49:44.431Z,48.40
2023-02-09T19:52:11.223Z,49.00
2023-02-09T19:54:38.016Z,49.40
2023-02-09T19:57:05.406Z,49.00
2023-02-09T19:59:32.296Z,48.90
2023-02-09T20:01:59.200Z,49.00
2023-02-09T20:04:26.154Z,48.90
2023-02-09T20:06:52.942Z,49.00
2023-02-09T20:09:19.679Z,49.20
2023-02-09T20:11:46.490Z,49.30
2023-02-09T20:14:13.195Z,49.10
2023-02-09T20:16:40.311Z,49.10
2023-02-09T20:19:07.136Z,49.00
2023-02-09T20:21:33.965Z,49.20
2023-02-09T20:24:00.818Z,49.30
2023-02-09T20:26:29.700Z,48.60
2023-02-09T20:28:57.574Z,49.30
2023-02-09T20:31:28.350Z,49.50
2023-02-09T20:33:55.602Z,49.20
2023-02-09T20:36:24.555Z,49.40
2023-02-09T20:38:52.520Z,48.80
2023-02-09T20:41:19.300Z,49.40
2023-02-09T20:44:05.159Z,49.70
2023-02-09T20:46:52.128Z,49.40
2023-02-09T20:49:19.495Z,48.90
2023-02-09T20:51:47.089Z,49.50
2023-02-09T20:54:14.376Z,49.00
2023-02-09T20:56:41.635Z,49.50
2023-02-09T20:59:09.005Z,49.50
2023-02-09T21:01:40.044Z,49.00
2023-02-09T21:04:07.411Z,49.10
2023-02-09T21:06:37.095Z,49.20
2023-02-09T21:09:06.764Z,48.80
2023-02-09T21:11:33.693Z,48.70
2023-02-09T21:14:01.434Z,49.40
2023-02-09T21:16:28.848Z,49.50
2023-02-09T21:18:55.709Z,49.00
2023-02-09T21:21:22.675Z,49.50
2023-02-09T21:23:49.704Z,49.40
2023-02-09T21:26:18.072Z,49.00
2023-02-09T21:28:45.400Z,49.30
2023-02-09T21:31:15.596Z,48.70
2023-02-09T21:33:42.488Z,48.80
2023-02-09T21:36:09.737Z,48.80
2023-02-09T21:38:41.250Z,48.90
2023-02-09T21:41:33.383Z,49.30
2023-02-09T21:44:00.986Z,49.20
2023-02-09T21:46:28.510Z,49.70
2023-02-09T21:48:55.743Z,49.70
2023-02-09T21:51:24.057Z,49.40
2023-02-09T21:53:51.109Z,49.60
2023-02-09T21:56:17.869Z,48.90
2023-02-09T21:58:44.780Z,49.70
2023-02-09T22:01:11.756Z,48.90
2023-02-09T22:03:39.216Z,49.00
2023-02-09T22:06:06.792Z,48.90
2023-02-09T22:08:33.696Z,48.90
2023-02-09T22:11:02.269Z,49.80
2023-02-09T22:13:30.232Z,48.90
2023-02-09T22:15:56.975Z,49.90
2023-02-09T22:18:23.992Z,49.30
2023-02-09T22:20:51.137Z,49.60
2023-02-09T22:23:19.340Z,49.30
2023-02-09T22:25:46.091Z,48.90
2023-02-09T22:28:13.671Z,48.90
2023-02-09T22:30:40.560Z,49.80
2023-02-09T22:33:07.384Z,49.50
2023-02-09T22:35:34.170Z,49.40
2023-02-09T22:38:00.904Z,49.50
2023-02-09T22:40:28.672Z,49.50
2023-02-09T22:42:55.397Z,49.80
2023-02-09T22:45:22.185Z,49.10
2023-02-09T22:47:48.876Z,49.80
2023-02-09T22:50:15.937Z,49.60
2023-02-09T22:52:42.692Z,49.30
2023-02-09T22:55:09.460Z,49.90
2023-02-09T22:57:36.278Z,50.10
2023-02-09T23:00:09.660Z,49.20
2023-02-09T23:02:36.443Z,49.20
2023-02-09T23:05:03.861Z,49.50
2023-02-09T23:07:30.776Z,49.90
2023-02-09T23:09:57.577Z,49.30
2023-02-09T23:12:24.364Z,49.60
2023-02-09T23:14:51.130Z,49.80
2023-02-09T23:17:18.312Z,49.30
2023-02-09T23:19:45.154Z,49.20
2023-02-09T23:22:12.029Z,49.20
2023-02-09T23:24:38.807Z,49.20
2023-02-09T23:27:05.588Z,49.30
2023-02-09T23:29:32.534Z,49.80
2023-02-09T23:31:59.229Z,49.30
2023-02-09T23:34:25.974Z,49.20
2023-02-09T23:36:52.897Z,49.30
2023-02-09T23:39:22.218Z,50.00
2023-02-09T23:41:49.088Z,50.00
2023-02-09T23:44:15.815Z,49.90
2023-02-09T23:46:42.674Z,50.10
2023-02-09T23:49:09.479Z,50.30
2023-02-09T23:51:36.838Z,49.70
2023-02-09T23:54:06.566Z,50.20
2023-02-09T23:56:37.051Z,49.40
2023-02-09T23:59:06.686Z,49.60
